Time;durP1;ratioP1;P1;durP2;ratioP2;P2;SDS_P1;SDS_P2;PMS_P1;PMS_P2;Temp;Humidity;BMP_temperature;BMP_pressure;BME280_temperature;BME280_humidity;BME280_pressure;Samples;Min_cycle;Max_cycle;Signal;HPM_P1;HPM_P2
2022/09/18 00:01:33;;;;;;;6.23;1.00;;;;;;;9.91;78.41;100249.13;5033142;28;20225;-81
2022/09/18 00:04:02;;;;;;;7.27;1.47;;;;;;;9.88;78.32;100254.63;5035095;28;20209;-84
2022/09/18 00:06:31;;;;;;;8.07;1.47;;;;;;;9.83;77.96;100256.78;5031770;28;20573;-82
2022/09/18 00:09:00;;;;;;;5.30;1.40;;;;;;;9.80;78.73;100256.97;5031270;28;20214;-81
2022/09/18 00:11:29;;;;;;;8.67;1.30;;;;;;;9.74;78.42;100259.06;5034271;28;20229;-81
2022/09/18 00:13:56;;;;;;;8.60;1.43;;;;;;;9.71;79.13;100256.59;5032309;28;20202;-81
2022/09/18 00:16:24;;;;;;;7.40;1.27;;;;;;;9.68;79.15;100262.13;5034362;28;20682;-81
2022/09/18 00:18:50;;;;;;;6.43;1.40;;;;;;;9.66;79.72;100258.75;5031821;28;20720;-81
2022/09/18 00:21:19;;;;;;;6.67;1.33;;;;;;;9.64;79.94;100268.63;5035878;28;20907;-81
2022/09/18 00:23:47;;;;;;;4.23;1.17;;;;;;;9.62;80.08;100262.53;5037451;28;20214;-81
2022/09/18 00:26:16;;;;;;;4.67;1.23;;;;;;;9.62;80.39;100264.34;5031296;28;20661;-81
2022/09/18 00:28:43;;;;;;;3.73;1.07;;;;;;;9.63;80.75;100271.38;5032750;28;20205;-81
2022/09/18 00:31:12;;;;;;;3.97;0.90;;;;;;;9.62;80.92;100274.97;5030747;28;20210;-81
2022/09/18 00:33:39;;;;;;;8.93;1.57;;;;;;;9.63;81.03;100277.53;5029549;28;20206;-81
2022/09/18 00:36:08;;;;;;;4.23;1.20;;;;;;;9.62;80.79;100273.19;5031278;28;20561;-82
2022/09/18 00:38:35;;;;;;;4.70;1.33;;;;;;;9.63;81.42;100279.34;5026077;28;20226;-81
2022/09/18 00:41:06;;;;;;;5.57;1.07;;;;;;;9.63;81.60;100290.00;5032330;28;20221;-81
2022/09/18 00:43:35;;;;;;;4.73;1.27;;;;;;;9.63;81.74;100274.03;5032168;28;20199;-81
2022/09/18 00:46:05;;;;;;;6.47;1.10;;;;;;;9.64;81.57;100289.03;5030044;28;20214;-81
2022/09/18 00:48:40;;;;;;;5.97;1.30;;;;;;;9.63;82.11;100298.81;5031397;28;20222;-81
2022/09/18 00:51:06;;;;;;;6.23;1.23;;;;;;;9.65;81.63;100291.59;5031756;28;20687;-81
2022/09/18 00:53:35;;;;;;;6.53;1.57;;;;;;;9.65;81.93;100291.59;5030862;28;20202;-81
2022/09/18 00:56:04;;;;;;;7.97;1.30;;;;;;;9.67;82.32;100294.97;5032733;28;20681;-81
2022/09/18 00:58:31;;;;;;;8.40;1.63;;;;;;;9.68;82.09;100291.38;5032094;28;20218;-81
2022/09/18 01:01:00;;;;;;;6.50;1.40;;;;;;;9.69;82.81;100292.22;5031968;28;20225;-81
2022/09/18 01:03:26;;;;;;;8.17;2.13;;;;;;;9.70;82.85;100301.91;5028972;28;20245;-83
2022/09/18 01:06:09;;;;;;;7.33;1.30;;;;;;;9.71;82.86;100298.28;5032058;28;20690;-82
2022/09/18 01:08:44;;;;;;;4.73;1.67;;;;;;;9.72;83.05;100306.19;5037552;28;20194;-83
2022/09/18 01:11:24;;;;;;;4.87;1.33;;;;;;;9.74;82.64;100295.44;5030168;28;20228;-82
2022/09/18 01:14:01;;;;;;;10.17;1.43;;;;;;;9.77;82.99;100305.03;5038289;28;20201;-81
2022/09/18 01:16:31;;;;;;;6.10;1.43;;;;;;;9.78;83.02;100296.97;5035565;28;20209;-81
2022/09/18 01:19:05;;;;;;;3.80;1.57;;;;;;;9.79;83.11;100303.97;5039154;28;20240;-82
2022/09/18 01:21:37;;;;;;;2.97;1.37;;;;;;;9.79;82.82;100298.66;5035201;28;20268;-82
2022/09/18 01:24:33;;;;;;;3.90;1.40;;;;;;;9.80;82.94;100294.19;5034558;28;20214;-82
2022/09/18 01:27:04;;;;;;;4.97;1.50;;;;;;;9.81;83.54;100301.22;5031067;28;20216;-81
2022/09/18 01:29:42;;;;;;;6.90;1.27;;;;;;;9.81;83.47;100295.91;5035011;28;20214;-81
2022/09/18 01:32:17;;;;;;;6.23;1.30;;;;;;;9.83;83.19;100301.97;5031572;28;20230;-81
2022/09/18 01:34:49;;;;;;;5.53;1.67;;;;;;;9.83;83.54;100297.53;5031342;28;20206;-81
2022/09/18 01:37:22;;;;;;;8.63;1.40;;;;;;;9.84;83.20;100301.03;5034996;28;20209;-81
2022/09/18 01:39:54;;;;;;;5.57;1.17;;;;;;;9.86;83.54;100301.75;5029724;28;20209;-81
2022/09/18 01:42:25;;;;;;;6.37;1.27;;;;;;;9.88;83.83;100298.03;5027059;28;20305;-81
2022/09/18 01:44:56;;;;;;;6.80;1.30;;;;;;;9.88;83.47;100291.88;5030257;28;20227;-81
2022/09/18 01:47:27;;;;;;;5.00;1.30;;;;;;;9.91;83.35;100294.34;5031669;28;20206;-81
2022/09/18 01:49:58;;;;;;;9.67;1.33;;;;;;;9.92;83.64;100288.06;5033242;28;20221;-81
2022/09/18 01:52:29;;;;;;;3.83;0.90;;;;;;;9.92;83.18;100288.91;5031539;28;20223;-81
2022/09/18 01:54:59;;;;;;;4.67;1.50;;;;;;;9.92;83.60;100288.06;5029913;28;20206;-82
2022/09/18 01:57:28;;;;;;;6.53;1.10;;;;;;;9.92;83.30;100298.69;5033890;28;20804;-82
2022/09/18 02:00:01;;;;;;;4.63;0.73;;;;;;;9.92;83.16;100291.56;5043965;28;20645;-82
2022/09/18 02:02:31;;;;;;;6.90;1.23;;;;;;;9.93;83.30;100295.09;5032219;28;20230;-82
2022/09/18 02:05:00;;;;;;;3.37;0.87;;;;;;;9.94;83.44;100299.44;5033229;28;20569;-82
2022/09/18 02:07:32;;;;;;;6.17;1.60;;;;;;;9.93;83.25;100295.94;5033358;28;20238;-82
2022/09/18 02:09:59;;;;;;;6.30;1.40;;;;;;;9.95;83.32;100304.69;5033048;28;20226;-80
2022/09/18 02:12:29;;;;;;;7.50;1.30;;;;;;;9.95;83.33;100294.03;5030045;28;20218;-81
2022/09/18 02:15:02;;;;;;;8.13;1.20;;;;;;;9.97;83.27;100297.44;5031439;28;20544;-81
2022/09/18 02:17:32;;;;;;;5.30;1.13;;;;;;;9.98;82.77;100296.50;5030889;28;20206;-81
2022/09/18 02:20:01;;;;;;;2.93;0.90;;;;;;;9.99;82.86;100306.19;5031425;28;20202;-80
2022/09/18 02:22:32;;;;;;;4.73;1.07;;;;;;;9.98;83.05;100304.47;5031396;28;20796;-81
2022/09/18 02:25:02;;;;;;;3.53;1.10;;;;;;;10.00;82.71;100296.41;5028874;28;20233;-81
2022/09/18 02:27:31;;;;;;;5.53;0.90;;;;;;;10.01;82.82;100306.94;5033949;28;20203;-81
2022/09/18 02:30:01;;;;;;;6.33;1.37;;;;;;;10.01;82.41;100306.94;5031178;28;20198;-82
2022/09/18 02:32:28;;;;;;;8.13;1.20;;;;;;;10.02;82.36;100307.78;5032986;28;20219;-81
2022/09/18 02:34:55;;;;;;;4.37;1.20;;;;;;;10.00;82.27;100302.56;5037455;28;20688;-81
2022/09/18 02:37:32;;;;;;;3.33;0.90;;;;;;;10.00;82.83;100294.59;5033173;28;20225;-81
2022/09/18 02:40:18;;;;;;;4.77;1.17;;;;;;;9.99;82.24;100300.88;5033035;28;20242;-81
2022/09/18 02:42:56;;;;;;;6.07;0.90;;;;;;;9.97;82.87;100302.78;5031073;28;20229;-81
2022/09/18 02:45:30;;;;;;;6.10;1.20;;;;;;;9.95;82.68;100296.69;5028342;28;20205;-81
2022/09/18 02:48:16;;;;;;;4.43;1.37;;;;;;;9.95;82.54;100299.34;5031249;28;20202;-81
2022/09/18 02:50:49;;;;;;;5.80;1.43;;;;;;;9.91;82.10;100299.66;5030373;28;20230;-81
2022/09/18 02:53:25;;;;;;;6.10;1.17;;;;;;;9.91;82.71;100303.16;5031028;28;20229;-81
2022/09/18 02:55:56;;;;;;;4.83;0.93;;;;;;;9.89;82.51;100296.25;5030290;28;20552;-80
2022/09/18 02:58:28;;;;;;;5.00;0.90;;;;;;;9.87;82.39;100292.81;5028008;28;20596;-82
2022/09/18 03:01:00;;;;;;;7.60;1.73;;;;;;;9.82;81.93;100287.84;5031734;28;20202;-81
2022/09/18 03:03:30;;;;;;;7.33;1.10;;;;;;;9.82;82.28;100287.84;5030824;28;20698;-80
2022/09/18 03:05:57;;;;;;;8.33;1.20;;;;;;;9.81;82.56;100279.94;5022383;28;20206;-81
2022/09/18 03:08:24;;;;;;;9.77;1.07;;;;;;;9.78;81.80;100277.50;5030242;28;20198;-81
2022/09/18 03:10:50;;;;;;;6.27;1.40;;;;;;;9.78;82.20;100282.81;5032445;28;20848;-81
2022/09/18 03:13:16;;;;;;;3.87;0.83;;;;;;;9.77;81.85;100278.44;5039935;28;20712;-81
2022/09/18 03:15:43;;;;;;;2.50;0.90;;;;;;;9.77;82.30;100275.78;5030186;28;20238;-81
2022/09/18 03:18:11;;;;;;;5.60;0.73;;;;;;;9.77;82.32;100289.06;5037942;28;20590;-81
2022/09/18 03:20:39;;;;;;;5.13;1.27;;;;;;;9.79;82.32;100284.50;5036085;28;20565;-81
2022/09/18 03:23:05;;;;;;;5.33;1.00;;;;;;;9.78;82.39;100283.66;5032132;28;20223;-81
2022/09/18 03:25:32;;;;;;;3.70;1.00;;;;;;;9.80;82.23;100288.88;5029162;28;20634;-81
2022/09/18 03:27:58;;;;;;;5.17;1.20;;;;;;;9.81;82.17;100275.47;5030838;28;20639;-81
2022/09/18 03:30:24;;;;;;;3.83;0.93;;;;;;;9.82;82.32;100279.84;5031065;28;20613;-81
2022/09/18 03:32:52;;;;;;;4.63;1.03;;;;;;;9.82;82.88;100279.00;5036752;28;20231;-81
2022/09/18 03:35:20;;;;;;;4.00;0.90;;;;;;;9.82;82.47;100279.00;5031075;28;20650;-81
2022/09/18 03:37:47;;;;;;;3.53;1.00;;;;;;;9.82;82.98;100286.97;5028450;28;20217;-81
2022/09/18 03:40:14;;;;;;;5.23;1.30;;;;;;;9.81;83.02;100279.94;5032393;28;20283;-82
2022/09/18 03:42:43;;;;;;;4.30;0.93;;;;;;;9.80;83.10;100286.22;5032649;28;20803;-81
2022/09/18 03:45:10;;;;;;;4.57;0.90;;;;;;;9.80;83.01;100283.56;5032542;28;20206;-82
2022/09/18 03:47:37;;;;;;;2.60;1.10;;;;;;;9.78;82.79;100277.50;5027258;28;20678;-81
2022/09/18 03:50:06;;;;;;;9.57;1.67;;;;;;;9.77;82.78;100278.44;5031882;28;20210;-81
2022/09/18 03:52:34;;;;;;;2.77;1.23;;;;;;;9.70;82.96;100278.84;5030124;28;20234;-81
2022/09/18 03:55:00;;;;;;;4.23;1.03;;;;;;;9.67;83.51;100279.03;5031069;28;20210;-81
2022/09/18 03:57:27;;;;;;;5.60;1.70;;;;;;;9.65;82.94;100280.09;5029458;28;20198;-81
2022/09/18 03:59:53;;;;;;;8.40;1.50;;;;;;;9.63;83.10;100280.19;5028935;28;20230;-81
2022/09/18 04:02:20;;;;;;;3.57;1.33;;;;;;;9.60;83.88;100277.75;5036197;28;20840;-80
2022/09/18 04:04:46;;;;;;;6.57;2.30;;;;;;;9.58;83.36;100279.66;5034007;28;20685;-80
2022/09/18 04:07:13;;;;;;;3.67;1.30;;;;;;;9.54;84.23;100278.13;5029975;28;20217;-81
2022/09/18 04:09:40;;;;;;;3.93;1.63;;;;;;;9.52;84.07;100273.84;5038715;28;20198;-81
2022/09/18 04:12:07;;;;;;;3.30;1.60;;;;;;;9.51;84.16;100288.09;5029303;28;20226;-81
2022/09/18 04:14:34;;;;;;;8.33;2.17;;;;;;;9.49;85.00;100282.91;5024483;28;20210;-81
2022/09/18 04:17:00;;;;;;;10.03;2.30;;;;;;;9.47;84.36;100274.19;5029632;28;20861;-81
2022/09/18 04:19:26;;;;;;;9.00;1.87;;;;;;;9.46;84.74;100282.25;5030336;28;20807;-81
2022/09/18 04:21:53;;;;;;;4.27;1.13;;;;;;;9.46;85.22;100287.56;5033265;28;20592;-81
2022/09/18 04:24:19;;;;;;;5.83;1.60;;;;;;;9.48;85.43;100286.53;5030257;28;20608;-80
2022/09/18 04:26:48;;;;;;;6.50;2.00;;;;;;;9.46;85.65;100280.44;5025755;28;20212;-81
2022/09/18 04:29:14;;;;;;;7.63;1.30;;;;;;;9.46;86.08;100274.28;5033020;28;20198;-81
2022/09/18 04:31:41;;;;;;;8.03;1.63;;;;;;;9.45;85.90;100273.41;5031800;28;20222;-81
2022/09/18 04:34:07;;;;;;;7.43;1.60;;;;;;;9.45;85.64;100276.09;5031018;28;20206;-81
2022/09/18 04:36:34;;;;;;;5.20;1.60;;;;;;;9.45;86.18;100276.09;5031620;28;20199;-82
2022/09/18 04:39:01;;;;;;;8.10;1.57;;;;;;;9.44;86.19;100271.72;5026323;28;20231;-81
2022/09/18 04:41:27;;;;;;;5.73;1.70;;;;;;;9.45;86.37;100277.88;5031985;28;20253;-81
2022/09/18 04:43:55;;;;;;;4.37;1.40;;;;;;;9.44;85.89;100279.69;5039564;28;20661;-80
2022/09/18 04:46:22;;;;;;;8.20;1.83;;;;;;;9.45;86.47;100268.09;5032827;28;20209;-81
2022/09/18 04:48:49;;;;;;;5.60;1.57;;;;;;;9.47;86.63;100268.88;5036028;28;20229;-81
2022/09/18 04:51:16;;;;;;;7.97;1.60;;;;;;;9.45;86.56;100267.25;5028215;28;20195;-81
2022/09/18 04:53:42;;;;;;;5.93;1.50;;;;;;;9.44;86.60;100271.72;5031848;28;20218;-81
2022/09/18 04:56:09;;;;;;;9.33;1.70;;;;;;;9.44;86.29;100277.03;5032781;28;20221;-81
2022/09/18 04:58:35;;;;;;;9.33;1.70;;;;;;;9.43;86.71;100282.44;5028368;28;20210;-83
2022/09/18 05:01:03;;;;;;;5.63;1.60;;;;;;;9.44;86.67;100281.50;5031363;28;20206;-82
2022/09/18 05:03:30;;;;;;;4.60;1.50;;;;;;;9.43;86.29;100279.78;5031532;28;20222;-83
2022/09/18 05:05:56;;;;;;;5.00;1.80;;;;;;;9.42;86.51;100273.63;5033951;28;20637;-81
2022/09/18 05:08:23;;;;;;;6.03;1.93;;;;;;;9.45;86.40;100273.41;5031721;28;20216;-80
2022/09/18 05:10:50;;;;;;;7.00;1.77;;;;;;;9.45;87.12;100284.06;5032173;28;20209;-82
2022/09/18 05:13:16;;;;;;;6.53;2.20;;;;;;;9.47;86.71;100282.16;5038282;28;20225;-81
2022/09/18 05:15:43;;;;;;;4.00;1.23;;;;;;;9.47;87.05;100279.50;5028617;28;20213;-80
2022/09/18 05:18:12;;;;;;;10.20;1.67;;;;;;;9.50;87.45;100281.06;5029207;28;20211;-81
2022/09/18 05:20:39;;;;;;;5.07;1.97;;;;;;;9.52;86.96;100281.84;5028593;28;20249;-81
2022/09/18 05:23:06;;;;;;;3.40;1.77;;;;;;;9.54;87.09;100277.28;5029314;28;20226;-81
2022/09/18 05:25:33;;;;;;;8.23;2.23;;;;;;;9.56;86.87;100278.88;5029026;28;20268;-81
2022/09/18 05:28:01;;;;;;;5.37;1.87;;;;;;;9.57;87.81;100285.91;5030778;28;20210;-81
2022/09/18 05:30:29;;;;;;;8.43;1.83;;;;;;;9.60;87.31;100283.06;5032309;28;20340;-81
2022/09/18 05:32:57;;;;;;;4.27;1.60;;;;;;;9.65;87.43;100298.72;5031099;28;20222;-80
2022/09/18 05:35:27;;;;;;;9.00;2.10;;;;;;;9.69;87.94;100292.22;5031935;28;20218;-81
2022/09/18 05:37:54;;;;;;;7.97;1.80;;;;;;;9.72;87.44;100284.91;5032319;28;20211;-80
2022/09/18 05:40:23;;;;;;;3.77;1.60;;;;;;;9.79;87.97;100281.84;5031151;28;20222;-80
2022/09/18 05:42:51;;;;;;;7.43;1.47;;;;;;;9.83;88.12;100262.09;5031374;28;20226;-82
2022/09/18 05:45:19;;;;;;;5.60;1.27;;;;;;;9.84;87.58;100263.78;5031764;28;20208;-80
2022/09/18 05:47:54;;;;;;;4.97;1.83;;;;;;;9.87;87.71;100282.19;5031728;28;20206;-81
2022/09/18 05:50:21;;;;;;;6.60;1.70;;;;;;;9.89;87.93;100274.97;5031661;28;20209;-82
2022/09/18 05:52:57;;;;;;;6.80;1.53;;;;;;;9.93;87.91;100279.13;5032376;28;20593;-82
2022/09/18 05:55:23;;;;;;;9.87;2.47;;;;;;;9.97;87.95;100270.84;5032143;28;20194;-81
2022/09/18 05:57:52;;;;;;;7.30;1.40;;;;;;;10.00;87.70;100280.44;5031794;28;20203;-82
2022/09/18 06:00:18;;;;;;;4.83;1.47;;;;;;;10.01;87.81;100279.47;5033484;28;20243;-81
2022/09/18 06:02:52;;;;;;;6.57;2.03;;;;;;;10.01;87.68;100280.34;5035159;28;20246;-81
2022/09/18 06:05:18;;;;;;;5.77;1.57;;;;;;;10.03;87.67;100277.56;5034214;28;20221;-81
2022/09/18 06:07:45;;;;;;;5.93;1.20;;;;;;;10.06;87.82;100282.66;5034705;28;20694;-82
2022/09/18 06:10:13;;;;;;;7.97;2.00;;;;;;;10.08;88.10;100286.94;5033731;28;20676;-82
2022/09/18 06:12:39;;;;;;;6.07;1.70;;;;;;;10.10;87.73;100289.50;5041245;28;20492;-80
2022/09/18 06:15:07;;;;;;;7.53;3.07;;;;;;;10.10;88.06;100284.19;5032299;28;20230;-81
2022/09/18 06:17:33;;;;;;;5.20;1.90;;;;;;;10.12;87.89;100284.06;5037636;28;20228;-82
2022/09/18 06:20:00;;;;;;;4.23;1.67;;;;;;;10.15;88.13;100289.19;5031201;28;20237;-81
2022/09/18 06:22:27;;;;;;;6.27;2.13;;;;;;;10.18;88.21;100291.66;5032549;28;20222;-81
2022/09/18 06:24:53;;;;;;;7.00;2.17;;;;;;;10.18;88.28;100286.34;5038851;28;20298;-81
2022/09/18 06:27:21;;;;;;;6.13;1.80;;;;;;;10.20;88.20;100287.97;5034258;28;20737;-81
2022/09/18 06:29:47;;;;;;;6.27;2.03;;;;;;;10.21;88.39;100284.31;5033826;28;20202;-82
2022/09/18 06:32:14;;;;;;;5.33;2.13;;;;;;;10.24;88.33;100296.56;5037660;28;20217;-81
2022/09/18 06:34:40;;;;;;;6.53;2.17;;;;;;;10.30;88.19;100288.19;5032697;28;20214;-82
2022/09/18 06:37:09;;;;;;;6.93;2.13;;;;;;;10.36;88.77;100288.63;5040692;28;20205;-81
2022/09/18 06:39:35;;;;;;;6.60;1.60;;;;;;;10.44;88.67;100283.63;5037371;28;20232;-83
2022/09/18 06:42:02;;;;;;;6.97;1.73;;;;;;;10.51;89.08;100288.53;5041213;28;20253;-81
2022/09/18 06:44:30;;;;;;;6.40;2.07;;;;;;;10.58;88.87;100287.13;5036111;28;20198;-81
2022/09/18 06:46:56;;;;;;;4.77;1.40;;;;;;;10.65;88.88;100294.59;5028192;28;20217;-81
2022/09/18 06:49:26;;;;;;;9.57;1.77;;;;;;;10.70;88.60;100283.66;5031146;28;20206;-81
2022/09/18 06:51:52;;;;;;;9.47;1.90;;;;;;;10.74;88.48;100285.16;5032816;28;20228;-81
2022/09/18 06:54:19;;;;;;;4.83;1.20;;;;;;;10.77;88.12;100292.88;5033524;28;20742;-81
2022/09/18 06:56:46;;;;;;;6.67;1.53;;;;;;;10.79;87.56;100285.66;5036221;28;20211;-81
2022/09/18 06:59:16;;;;;;;5.23;1.87;;;;;;;10.83;87.35;100280.97;5038451;28;20208;-81
2022/09/18 07:01:43;;;;;;;5.77;1.30;;;;;;;10.87;87.14;100272.66;5031490;28;20700;-80
2022/09/18 07:04:10;;;;;;;7.43;2.03;;;;;;;10.93;86.85;100277.53;5034402;28;20202;-81
2022/09/18 07:06:36;;;;;;;4.37;1.60;;;;;;;10.95;86.53;100264.97;5034473;28;20202;-81
2022/09/18 07:09:03;;;;;;;6.57;1.67;;;;;;;11.03;86.29;100275.09;5033300;28;20676;-80
2022/09/18 07:11:35;;;;;;;3.97;1.50;;;;;;;11.09;86.21;100272.84;5035420;28;20715;-81
2022/09/18 07:14:01;;;;;;;4.27;1.33;;;;;;;11.17;85.33;100271.44;5036204;28;20233;-81
2022/09/18 07:16:28;;;;;;;4.43;1.57;;;;;;;11.23;85.46;100279.00;5028577;28;20204;-81
2022/09/18 07:18:56;;;;;;;3.33;1.20;;;;;;;11.31;85.50;100280.13;5034267;28;20227;-80
2022/09/18 07:21:22;;;;;;;5.50;1.50;;;;;;;11.39;84.95;100277.78;5034188;28;20230;-81
2022/09/18 07:23:49;;;;;;;7.67;1.77;;;;;;;11.50;84.99;100276.97;5033979;28;20215;-81
2022/09/18 07:26:15;;;;;;;5.57;1.30;;;;;;;11.59;84.37;100276.31;5032943;28;20211;-81
2022/09/18 07:28:42;;;;;;;5.40;1.30;;;;;;;11.66;83.62;100271.38;5032200;28;20213;-81
2022/09/18 07:31:08;;;;;;;3.17;1.33;;;;;;;11.70;83.07;100268.38;5037730;28;20203;-81
2022/09/18 07:33:36;;;;;;;6.70;2.00;;;;;;;11.73;82.71;100268.16;5030667;28;20223;-81
2022/09/18 07:36:05;;;;;;;6.43;1.70;;;;;;;11.77;82.33;100271.47;5033897;28;20655;-81
2022/09/18 07:38:33;;;;;;;4.30;1.00;;;;;;;11.81;82.27;100267.63;5038047;28;20211;-81
2022/09/18 07:41:01;;;;;;;3.50;1.10;;;;;;;11.81;81.33;100268.47;5033840;28;20231;-81
2022/09/18 07:43:27;;;;;;;3.43;1.33;;;;;;;11.82;81.27;100267.47;5032155;28;20281;-81
2022/09/18 07:45:54;;;;;;;4.17;1.20;;;;;;;11.85;80.95;100278.91;5035501;28;20210;-81
2022/09/18 07:48:20;;;;;;;3.53;1.40;;;;;;;11.87;80.71;100264.47;5037071;28;20631;-81
2022/09/18 07:50:47;;;;;;;3.60;1.00;;;;;;;11.91;80.75;100265.09;5039687;28;20238;-81
2022/09/18 07:53:16;;;;;;;3.27;1.10;;;;;;;11.92;80.06;100270.34;5032119;28;20254;-81
2022/09/18 07:55:46;;;;;;;4.80;1.03;;;;;;;11.94;79.96;100272.88;5025514;28;20209;-80
2022/09/18 07:58:13;;;;;;;4.27;1.50;;;;;;;11.95;79.63;100277.25;5030725;28;20206;-83
2022/09/18 08:00:40;;;;;;;5.90;1.27;;;;;;;11.95;79.58;100275.44;5031859;28;20231;-84
2022/09/18 08:03:10;;;;;;;6.40;0.90;;;;;;;11.96;79.15;100269.13;5012660;28;20672;-83
2022/09/18 08:05:37;;;;;;;3.97;1.60;;;;;;;11.97;78.92;100276.19;5012750;28;20213;-84
2022/09/18 08:08:04;;;;;;;5.30;1.23;;;;;;;12.01;79.10;100271.44;5012229;28;20203;-85
2022/09/18 08:10:33;;;;;;;4.93;1.17;;;;;;;12.05;78.88;100271.09;5016375;28;20221;-83
2022/09/18 08:13:01;;;;;;;3.47;0.90;;;;;;;12.08;78.81;100278.88;5032406;28;20228;-84
2022/09/18 08:15:27;;;;;;;4.17;1.10;;;;;;;12.09;78.89;100277.91;5032548;28;20233;-85
2022/09/18 08:17:54;;;;;;;5.50;1.03;;;;;;;12.12;78.98;100277.69;5036576;28;20211;-83
2022/09/18 08:20:21;;;;;;;4.50;1.03;;;;;;;12.13;78.92;100276.72;5036155;28;20230;-84
2022/09/18 08:22:47;;;;;;;2.90;1.20;;;;;;;12.17;79.48;100288.03;5036566;28;20229;-83
2022/09/18 08:25:14;;;;;;;2.63;1.03;;;;;;;12.15;79.37;100287.28;5036517;28;20217;-82
2022/09/18 08:27:42;;;;;;;3.43;1.03;;;;;;;12.09;79.32;100291.25;5037543;28;20213;-84
2022/09/18 08:30:12;;;;;;;3.03;1.00;;;;;;;12.09;79.46;100282.41;5036022;28;20209;-84
2022/09/18 08:32:38;;;;;;;4.40;1.00;;;;;;;12.12;79.81;100279.50;5036099;28;20335;-84
2022/09/18 08:35:06;;;;;;;2.23;0.97;;;;;;;12.15;79.56;100281.94;5036854;28;20217;-83
2022/09/18 08:37:33;;;;;;;1.77;0.63;;;;;;;12.14;79.07;100272.25;5033654;28;20221;-84
2022/09/18 08:39:59;;;;;;;2.23;0.80;;;;;;;12.12;78.54;100272.34;5032277;28;20234;-84
2022/09/18 08:42:36;;;;;;;1.87;0.60;;;;;;;12.13;78.50;100276.72;5032391;28;20232;-84
2022/09/18 08:45:24;;;;;;;2.63;0.70;;;;;;;12.13;78.28;100275.88;5031125;28;20553;-85
2022/09/18 08:47:55;;;;;;;3.60;0.80;;;;;;;12.16;77.96;100279.16;5036381;28;20209;-83
2022/09/18 08:50:26;;;;;;;3.53;0.60;;;;;;;12.17;77.57;100285.38;5017662;28;20201;-84
2022/09/18 08:52:59;;;;;;;4.87;0.83;;;;;;;12.22;77.49;100274.31;5031844;28;20229;-85
2022/09/18 08:55:29;;;;;;;1.53;0.70;;;;;;;12.26;77.94;100265.09;5043178;28;20186;-83
2022/09/18 08:58:00;;;;;;;4.23;1.00;;;;;;;12.30;77.56;100262.09;5032255;28;20264;-84
2022/09/18 09:00:31;;;;;;;3.50;0.83;;;;;;;12.34;77.62;100266.25;5015389;28;20574;-84
2022/09/18 09:03:03;;;;;;;3.70;1.47;;;;;;;12.41;77.16;100264.78;5016602;28;20771;-83
2022/09/18 09:05:35;;;;;;;6.43;2.20;;;;;;;12.48;77.33;100258.00;5027985;28;20190;-84
2022/09/18 09:08:25;;;;;;;4.17;0.90;;;;;;;12.56;77.14;100251.19;5035148;28;20546;-85
2022/09/18 09:11:02;;;;;;;2.57;0.90;;;;;;;12.64;76.97;100254.13;5036086;28;20190;-84
2022/09/18 09:13:48;;;;;;;6.47;1.20;;;;;;;12.72;76.92;100251.72;5035291;28;20229;-85
2022/09/18 09:16:22;;;;;;;6.13;1.20;;;;;;;12.82;76.53;100268.72;5035143;28;20186;-85
2022/09/18 09:18:59;;;;;;;3.20;1.20;;;;;;;12.88;77.15;100259.38;5034790;28;20281;-84
2022/09/18 09:21:42;;;;;;;3.17;0.90;;;;;;;12.92;76.32;100252.81;5033839;28;20221;-84
2022/09/18 09:24:28;;;;;;;3.00;0.80;;;;;;;12.94;75.99;100256.22;5035723;28;20214;-85
2022/09/18 09:26:56;;;;;;;5.33;1.30;;;;;;;13.00;75.67;100250.38;5036370;28;20210;-84
2022/09/18 09:29:28;;;;;;;3.63;1.20;;;;;;;13.04;75.47;100246.50;5035209;28;20201;-84
2022/09/18 09:31:59;;;;;;;3.00;1.30;;;;;;;13.03;75.15;100248.31;5033490;28;20222;-84
2022/09/18 09:34:30;;;;;;;2.23;1.10;;;;;;;13.04;74.49;100238.47;5034324;28;20209;-84
2022/09/18 09:37:02;;;;;;;3.33;0.90;;;;;;;13.05;74.25;100238.34;5036326;28;20195;-84
2022/09/18 09:39:34;;;;;;;2.47;0.60;;;;;;;13.08;74.21;100235.41;5038979;28;20193;-83
2022/09/18 09:42:06;;;;;;;2.63;0.70;;;;;;;13.13;73.95;100227.88;5039484;28;20234;-83
2022/09/18 09:44:39;;;;;;;2.30;0.60;;;;;;;13.18;73.59;100233.75;5039251;28;20285;-85
2022/09/18 09:47:19;;;;;;;1.60;0.70;;;;;;;13.23;72.96;100241.41;5038235;28;20190;-84
2022/09/18 09:49:55;;;;;;;5.63;1.70;;;;;;;13.29;72.52;100250.75;5034578;28;20194;-85
2022/09/18 09:52:25;;;;;;;2.97;1.83;;;;;;;13.28;71.91;100249.03;5034828;28;20229;-85
2022/09/18 09:54:56;;;;;;;3.37;1.60;;;;;;;13.32;71.93;100242.47;5034851;28;20221;-84
2022/09/18 09:57:31;;;;;;;3.07;1.43;;;;;;;13.30;70.03;100236.41;5035712;28;20190;-85
2022/09/18 10:00:06;;;;;;;3.77;1.03;;;;;;;13.31;70.20;100236.28;5038761;28;20224;-84
2022/09/18 10:02:48;;;;;;;2.30;0.60;;;;;;;13.28;69.02;100230.31;5039029;28;20234;-84
2022/09/18 10:05:24;;;;;;;1.10;0.43;;;;;;;13.27;69.04;100240.16;5036972;28;20198;-85
2022/09/18 10:07:56;;;;;;;1.17;0.50;;;;;;;13.30;68.86;100233.72;5034463;28;20194;-84
2022/09/18 10:10:30;;;;;;;2.07;0.97;;;;;;;13.33;68.75;100233.47;5037869;28;20557;-85
2022/09/18 10:13:01;;;;;;;2.03;0.87;;;;;;;13.34;68.69;100232.50;5034319;28;20583;-85
2022/09/18 10:15:35;;;;;;;2.47;0.70;;;;;;;13.41;69.43;100237.25;5037550;28;20209;-84
2022/09/18 10:18:06;;;;;;;4.77;1.47;;;;;;;13.43;69.06;100227.28;5037726;28;20325;-85
2022/09/18 10:20:35;;;;;;;1.47;0.53;;;;;;;13.45;68.85;100217.25;5037410;28;20218;-85
2022/09/18 10:23:10;;;;;;;2.00;0.40;;;;;;;13.48;68.88;100205.47;5038258;28;20226;-84
2022/09/18 10:25:43;;;;;;;2.53;1.03;;;;;;;13.48;68.75;100217.03;5037293;28;20226;-85
2022/09/18 10:28:12;;;;;;;3.83;0.80;;;;;;;13.46;68.15;100226.13;5036548;28;20286;-84
2022/09/18 10:30:53;;;;;;;1.50;0.70;;;;;;;13.47;68.81;100228.69;5035966;28;20210;-84
2022/09/18 10:33:36;;;;;;;1.60;0.50;;;;;;;13.46;68.64;100235.03;5037506;28;20237;-85
2022/09/18 10:36:10;;;;;;;2.03;0.50;;;;;;;13.44;68.00;100220.06;5036052;28;20206;-84
2022/09/18 10:38:38;;;;;;;2.33;0.67;;;;;;;13.44;68.54;100217.38;5037664;28;20661;-84
2022/09/18 10:41:30;;;;;;;2.83;0.70;;;;;;;13.43;68.17;100218.41;5038319;28;20225;-84
2022/09/18 10:44:01;;;;;;;3.03;0.70;;;;;;;13.44;68.25;100225.41;5030067;28;20221;-84
2022/09/18 10:46:30;;;;;;;1.97;0.60;;;;;;;13.44;68.15;100212.03;5035067;28;20186;-85
2022/09/18 10:49:02;;;;;;;2.27;0.90;;;;;;;13.39;67.90;100217.78;5038564;28;20204;-85
2022/09/18 10:51:29;;;;;;;2.60;0.70;;;;;;;13.42;68.00;100230.06;5037742;28;20226;-85
2022/09/18 10:54:14;;;;;;;2.73;1.00;;;;;;;13.48;68.40;100226.88;5037327;28;20631;-85
2022/09/18 10:56:40;;;;;;;1.60;0.60;;;;;;;13.48;68.43;100218.84;5037454;28;20201;-85
2022/09/18 10:59:29;;;;;;;2.27;0.80;;;;;;;13.49;68.43;100221.41;5036338;28;20221;-84
2022/09/18 11:01:56;;;;;;;3.83;1.13;;;;;;;13.49;68.59;100228.56;5033812;28;20230;-85
2022/09/18 11:04:26;;;;;;;1.07;0.43;;;;;;;13.48;68.10;100218.84;5037282;28;20206;-85
2022/09/18 11:06:53;;;;;;;2.67;0.70;;;;;;;13.51;68.30;100216.78;5037586;28;20217;-84
2022/09/18 11:09:29;;;;;;;2.17;0.50;;;;;;;13.54;68.71;100208.50;5038369;28;20206;-85
2022/09/18 11:11:56;;;;;;;1.63;0.70;;;;;;;13.58;68.64;100213.59;5038708;28;20597;-85
2022/09/18 11:14:26;;;;;;;1.27;0.60;;;;;;;13.58;67.98;100222.47;5037308;28;20210;-85
2022/09/18 11:16:56;;;;;;;3.37;0.53;;;;;;;13.58;67.72;100216.28;5037830;28;20580;-85
2022/09/18 11:19:28;;;;;;;1.47;0.50;;;;;;;13.61;67.87;100208.84;5036807;28;20202;-86
2022/09/18 11:21:59;;;;;;;1.57;0.50;;;;;;;13.61;67.13;100221.38;5036992;28;20689;-85
2022/09/18 11:24:27;;;;;;;3.37;0.67;;;;;;;13.57;67.08;100223.44;5037288;28;20249;-85
2022/09/18 11:26:55;;;;;;;1.57;0.70;;;;;;;13.56;66.35;100208.38;5037144;28;20283;-86
2022/09/18 11:29:27;;;;;;;2.47;0.47;;;;;;;13.54;65.95;100204.97;5037812;28;20206;-84
2022/09/18 11:31:58;;;;;;;1.23;0.60;;;;;;;13.53;66.11;100203.28;5036673;28;20230;-84
2022/09/18 11:34:29;;;;;;;1.07;0.50;;;;;;;13.55;66.83;100198.66;5038339;28;20559;-85
2022/09/18 11:36:59;;;;;;;1.27;0.30;;;;;;;13.57;66.31;100207.41;5037280;28;20191;-85
2022/09/18 11:39:34;;;;;;;1.40;0.47;;;;;;;13.58;66.45;100208.25;5037299;28;20203;-86
2022/09/18 11:42:01;;;;;;;1.23;0.40;;;;;;;13.60;66.17;100195.59;5036982;28;20230;-84